createdAt,value
2023-03-17T00:00:38.414Z,9.55
2023-03-17T00:03:06.749Z,11.07
2023-03-17T00:05:36.577Z,10.38
2023-03-17T00:08:07.197Z,9.90
2023-03-17T00:10:34.802Z,9.93
2023-03-17T00:13:02.408Z,10.10
2023-03-17T00:15:30.619Z,10.93
2023-03-17T00:17:58.516Z,10.45
2023-03-17T00:20:28.762Z,9.98
2023-03-17T00:22:59.566Z,9.80
2023-03-17T00:25:29.120Z,12.05
2023-03-17T00:27:58.661Z,9.57
2023-03-17T00:30:27.125Z,8.95
2023-03-17T00:32:57.569Z,9.48
2023-03-17T00:35:27.119Z,9.93
2023-03-17T00:37:56.304Z,9.48
2023-03-17T00:40:29.465Z,9.15
2023-03-17T00:42:57.916Z,8.68
2023-03-17T00:45:27.095Z,8.70
2023-03-17T00:47:56.028Z,10.38
2023-03-17T00:50:26.201Z,9.32
2023-03-17T00:52:56.103Z,8.48
2023-03-17T00:55:26.529Z,8.73
2023-03-17T00:57:54.370Z,8.73
2023-03-17T01:00:24.875Z,8.38
2023-03-17T01:02:54.054Z,8.90
2023-03-17T01:05:22.822Z,8.32
2023-03-17T01:07:53.238Z,8.73
2023-03-17T01:10:23.819Z,8.23
2023-03-17T01:12:53.181Z,8.82
2023-03-17T01:15:21.937Z,9.02
2023-03-17T01:17:51.240Z,10.65
2023-03-17T01:20:22.596Z,8.55
2023-03-17T01:22:50.510Z,9.18
2023-03-17T01:25:19.307Z,9.57
2023-03-17T01:27:48.018Z,8.98
2023-03-17T01:30:25.982Z,10.65
2023-03-17T01:32:53.970Z,8.30
2023-03-17T01:35:21.669Z,9.43
2023-03-17T01:37:50.472Z,9.82
2023-03-17T01:40:22.452Z,9.05
2023-03-17T01:42:53.542Z,8.55
2023-03-17T01:45:58.847Z,6.23
2023-03-17T01:48:29.081Z,9.98
2023-03-17T01:50:58.100Z,9.35
2023-03-17T01:53:25.931Z,9.23
2023-03-17T01:55:53.939Z,8.43
2023-03-17T01:58:24.907Z,9.55
2023-03-17T02:00:52.608Z,8.95
2023-03-17T02:03:20.613Z,8.93
2023-03-17T02:05:51.605Z,9.55
2023-03-17T02:08:19.630Z,10.60
2023-03-17T02:10:49.431Z,8.68
2023-03-17T02:13:17.778Z,9.63
2023-03-17T02:15:48.399Z,8.50
2023-03-17T02:18:17.149Z,9.38
2023-03-17T02:21:27.240Z,9.68
2023-03-17T02:23:56.740Z,8.88
2023-03-17T02:26:26.003Z,10.10
2023-03-17T02:28:53.722Z,8.43
2023-03-17T02:31:21.988Z,9.63
2023-03-17T02:33:49.721Z,14.30
2023-03-17T02:36:17.398Z,9.07
2023-03-17T02:38:45.048Z,9.27
2023-03-17T02:41:14.068Z,8.70
2023-03-17T02:43:42.888Z,8.98
2023-03-17T02:46:10.769Z,21.35
2023-03-17T02:48:38.645Z,8.68
2023-03-17T02:51:06.592Z,8.45
2023-03-17T02:53:34.230Z,8.85
2023-03-17T02:56:02.207Z,9.23
2023-03-17T02:58:31.448Z,9.90
2023-03-17T03:00:59.086Z,8.85
2023-03-17T03:03:26.894Z,9.48
2023-03-17T03:05:54.522Z,9.05
2023-03-17T03:08:22.194Z,9.05
2023-03-17T03:10:49.831Z,9.18
2023-03-17T03:13:17.632Z,8.95
2023-03-17T03:15:46.729Z,9.20
2023-03-17T03:18:14.636Z,10.32
2023-03-17T03:20:43.706Z,9.43
2023-03-17T03:23:11.439Z,8.90
2023-03-17T03:25:39.169Z,9.15
2023-03-17T03:28:08.159Z,9.55
2023-03-17T03:30:37.391Z,10.00
2023-03-17T03:33:06.871Z,11.35
2023-03-17T03:35:35.497Z,9.07
2023-03-17T03:38:03.479Z,10.00
2023-03-17T03:40:31.596Z,9.27
2023-03-17T03:42:59.534Z,8.05
2023-03-17T03:45:27.272Z,9.00
2023-03-17T03:47:54.978Z,9.07
2023-03-17T03:50:24.337Z,11.25
2023-03-17T03:52:51.960Z,12.63
2023-03-17T03:55:20.095Z,10.00
2023-03-17T03:57:47.750Z,9.40
2023-03-17T04:00:17.717Z,9.60
2023-03-17T04:02:46.789Z,9.98
2023-03-17T04:05:15.395Z,9.35
2023-03-17T04:07:44.445Z,9.48
2023-03-17T04:10:13.012Z,9.13
2023-03-17T04:12:40.706Z,11.55
2023-03-17T04:15:11.229Z,9.02
2023-03-17T04:17:38.848Z,8.90
2023-03-17T04:20:07.700Z,9.93
2023-03-17T04:22:35.448Z,8.65
2023-03-17T04:25:04.821Z,9.98
2023-03-17T04:27:32.560Z,11.23
2023-03-17T04:30:01.634Z,11.13
2023-03-17T04:32:29.393Z,10.00
2023-03-17T04:34:57.856Z,10.80
2023-03-17T04:37:25.990Z,9.77
2023-03-17T04:39:55.108Z,12.27
2023-03-17T04:42:24.074Z,11.15
2023-03-17T04:44:51.718Z,10.18
2023-03-17T04:47:19.324Z,12.40
2023-03-17T04:49:47.000Z,10.07
2023-03-17T04:52:14.643Z,10.63
2023-03-17T04:54:42.535Z,11.25
2023-03-17T04:57:10.529Z,10.52
2023-03-17T04:59:39.523Z,11.20
2023-03-17T05:02:07.777Z,10.65
2023-03-17T05:04:35.517Z,13.32
2023-03-17T05:07:03.159Z,10.50
2023-03-17T05:09:30.874Z,10.20
2023-03-17T05:11:58.612Z,11.30
2023-03-17T05:14:26.280Z,10.50
2023-03-17T05:16:55.405Z,10.48
2023-03-17T05:19:23.168Z,11.80
2023-03-17T05:21:51.536Z,10.38
2023-03-17T05:24:19.198Z,12.93
2023-03-17T05:26:46.845Z,11.63
2023-03-17T05:29:14.689Z,20.67
2023-03-17T05:31:42.365Z,12.88
2023-03-17T05:34:11.539Z,11.60
2023-03-17T05:36:39.179Z,11.23
2023-03-17T05:39:07.447Z,11.52
2023-03-17T05:41:35.076Z,10.10
2023-03-17T05:44:02.810Z,10.48
2023-03-17T05:46:30.695Z,12.98
2023-03-17T05:48:58.409Z,12.98
2023-03-17T05:51:27.932Z,11.48
2023-03-17T05:53:56.007Z,11.45
2023-03-17T05:56:24.906Z,10.93
2023-03-17T05:58:52.524Z,10.60
2023-03-17T06:01:20.429Z,10.65
2023-03-17T06:03:48.338Z,10.73
2023-03-17T06:06:16.317Z,10.00
2023-03-17T06:08:45.702Z,12.20
2023-03-17T06:11:13.691Z,13.90
2023-03-17T06:13:41.550Z,11.93
2023-03-17T06:16:09.785Z,10.07
2023-03-17T06:18:37.501Z,12.45
2023-03-17T06:21:05.366Z,12.75
2023-03-17T06:23:32.963Z,14.98
2023-03-17T06:26:01.938Z,10.40
2023-03-17T06:28:29.608Z,16.30
2023-03-17T06:30:57.250Z,11.68
2023-03-17T06:33:25.015Z,10.35
2023-03-17T06:35:52.696Z,10.25
2023-03-17T06:38:20.844Z,10.80
2023-03-17T06:40:48.521Z,12.85
2023-03-17T06:43:19.490Z,21.42
2023-03-17T06:45:47.153Z,10.90
2023-03-17T06:48:14.756Z,14.25
2023-03-17T06:50:42.407Z,12.45
2023-03-17T06:53:10.037Z,13.73
2023-03-17T06:55:37.699Z,11.07
2023-03-17T06:58:05.293Z,12.20
2023-03-17T07:00:34.377Z,10.52
2023-03-17T07:03:03.010Z,10.98
2023-03-17T07:05:31.206Z,11.02
2023-03-17T07:07:58.980Z,10.50
2023-03-17T07:10:26.585Z,10.40
2023-03-17T07:12:54.222Z,9.77
2023-03-17T07:15:22.046Z,9.68
2023-03-17T07:17:51.308Z,9.20
2023-03-17T07:20:19.084Z,9.85
2023-03-17T07:22:46.739Z,10.35
2023-03-17T07:25:14.394Z,10.93
2023-03-17T07:27:42.068Z,12.68
2023-03-17T07:30:10.969Z,10.90
2023-03-17T07:32:38.660Z,10.15
2023-03-17T07:35:08.362Z,11.05
2023-03-17T07:37:36.376Z,10.63
2023-03-17T07:40:04.721Z,10.50
2023-03-17T07:42:33.251Z,12.35
2023-03-17T07:45:01.172Z,11.38
2023-03-17T07:47:29.052Z,11.88
2023-03-17T07:49:56.729Z,12.23
2023-03-17T07:52:25.788Z,11.63
2023-03-17T07:54:53.948Z,10.55
2023-03-17T07:57:22.222Z,10.95
2023-03-17T07:59:50.536Z,11.90
2023-03-17T08:02:22.035Z,11.88
2023-03-17T08:04:51.000Z,11.60
2023-03-17T08:07:19.486Z,11.43
2023-03-17T08:09:48.528Z,12.07
2023-03-17T08:12:16.385Z,12.40
2023-03-17T08:14:44.100Z,12.32
2023-03-17T08:17:12.301Z,11.00
2023-03-17T08:19:41.059Z,12.07
2023-03-17T08:22:09.569Z,12.23
2023-03-17T08:24:39.667Z,11.15
2023-03-17T08:27:08.859Z,12.38
2023-03-17T08:29:36.512Z,11.65
2023-03-17T08:32:04.296Z,11.88
2023-03-17T08:34:32.079Z,16.42
2023-03-17T08:36:59.769Z,11.82
2023-03-17T08:39:27.414Z,12.15
2023-03-17T08:41:55.693Z,11.00
2023-03-17T08:44:24.815Z,11.38
2023-03-17T08:46:52.976Z,10.32
2023-03-17T08:49:21.922Z,11.93
2023-03-17T08:51:49.585Z,11.02
2023-03-17T08:54:17.202Z,12.68
2023-03-17T08:56:44.834Z,11.68
2023-03-17T08:59:12.705Z,14.48
2023-03-17T09:01:42.029Z,13.55
2023-03-17T09:04:09.774Z,11.93
2023-03-17T09:06:37.554Z,11.38
2023-03-17T09:09:05.269Z,11.18
2023-03-17T09:11:33.609Z,10.82
2023-03-17T09:14:01.236Z,10.82
2023-03-17T09:16:33.929Z,11.13
2023-03-17T09:19:03.733Z,11.38
2023-03-17T09:21:31.965Z,11.65
2023-03-17T09:24:02.218Z,19.60
2023-03-17T09:26:30.545Z,10.32
2023-03-17T09:28:58.528Z,11.23
2023-03-17T09:31:27.173Z,11.55
2023-03-17T09:33:54.941Z,11.18
2023-03-17T09:36:24.185Z,11.18
2023-03-17T09:38:52.444Z,10.63
2023-03-17T09:41:53.355Z,11.43
2023-03-17T09:44:39.033Z,10.70
2023-03-17T09:47:15.197Z,11.73
2023-03-17T09:49:46.684Z,11.77
2023-03-17T09:52:18.654Z,11.95
2023-03-17T09:54:49.602Z,11.45
2023-03-17T09:57:19.126Z,12.30
2023-03-17T09:59:48.386Z,11.85
2023-03-17T10:02:20.267Z,11.30
2023-03-17T10:04:48.834Z,11.95
2023-03-17T10:07:20.543Z,12.13
2023-03-17T10:09:55.316Z,11.45
2023-03-17T10:12:28.944Z,11.25
2023-03-17T10:15:00.397Z,10.93
2023-03-17T10:17:32.796Z,11.98
2023-03-17T10:20:04.347Z,11.48
2023-03-17T10:22:38.399Z,12.52
2023-03-17T10:25:11.519Z,12.52
2023-03-17T10:27:39.594Z,11.48
2023-03-17T10:30:15.367Z,12.23
2023-03-17T10:32:43.779Z,12.20
2023-03-17T10:35:12.418Z,13.85
2023-03-17T10:37:43.906Z,11.90
2023-03-17T10:40:21.959Z,12.15
2023-03-17T10:42:50.674Z,13.32
2023-03-17T10:45:25.001Z,12.35
2023-03-17T10:47:52.616Z,12.05
2023-03-17T10:50:22.962Z,22.67
2023-03-17T10:52:57.813Z,17.42
2023-03-17T10:55:29.405Z,14.00
2023-03-17T10:58:03.184Z,12.68
2023-03-17T11:00:35.183Z,12.63
2023-03-17T11:05:32.993Z,12.25
2023-03-17T11:08:11.304Z,12.38
2023-03-17T11:10:40.617Z,13.23
2023-03-17T11:13:09.436Z,13.18
2023-03-17T11:15:39.518Z,12.50
2023-03-17T11:18:14.722Z,13.50
2023-03-17T11:20:47.751Z,12.90
2023-03-17T11:23:24.238Z,12.68
2023-03-17T11:25:57.567Z,13.10
2023-03-17T11:28:30.963Z,12.48
2023-03-17T11:31:02.155Z,13.27
2023-03-17T11:33:35.922Z,14.77
2023-03-17T11:36:11.013Z,14.20
2023-03-17T11:38:44.683Z,13.05
2023-03-17T11:41:33.019Z,14.07
2023-03-17T11:44:15.696Z,13.95
2023-03-17T11:46:45.246Z,13.10
2023-03-17T11:49:15.628Z,13.52
2023-03-17T11:51:50.697Z,12.93
2023-03-17T11:54:24.762Z,13.18
2023-03-17T11:56:54.221Z,12.68
2023-03-17T11:59:28.064Z,13.60
2023-03-17T12:01:59.736Z,14.02
2023-03-17T12:04:34.327Z,13.35
2023-03-17T12:07:09.146Z,16.50
2023-03-17T12:09:42.174Z,13.13
2023-03-17T12:12:13.071Z,12.50
2023-03-17T12:14:44.163Z,13.02
2023-03-17T12:17:18.484Z,13.45
2023-03-17T12:20:00.038Z,13.55
2023-03-17T12:22:30.577Z,13.77
2023-03-17T12:25:05.940Z,13.07
2023-03-17T12:27:35.938Z,13.70
2023-03-17T12:30:08.153Z,13.35
2023-03-17T12:32:40.413Z,13.57
2023-03-17T12:35:23.910Z,14.50
2023-03-17T12:37:51.548Z,13.15
2023-03-17T12:40:24.563Z,14.40
2023-03-17T12:42:53.866Z,14.32
2023-03-17T12:45:46.164Z,14.15
2023-03-17T12:48:38.927Z,14.00
2023-03-17T12:51:32.204Z,13.88
2023-03-17T12:54:00.260Z,13.13
2023-03-17T12:56:30.866Z,13.27
2023-03-17T12:59:02.865Z,13.27
2023-03-17T13:01:33.120Z,15.18
2023-03-17T13:04:15.546Z,13.60
2023-03-17T13:06:45.263Z,13.18
2023-03-17T13:09:33.542Z,13.00
2023-03-17T13:12:04.041Z,13.80
2023-03-17T13:14:42.089Z,13.57
2023-03-17T13:17:34.866Z,13.90
2023-03-17T13:20:17.290Z,14.88
2023-03-17T13:23:04.493Z,14.10
2023-03-17T13:25:35.044Z,13.38
2023-03-17T13:28:29.166Z,14.13
2023-03-17T13:31:10.015Z,14.50
2023-03-17T13:33:43.194Z,13.82
2023-03-17T13:36:23.709Z,14.02
2023-03-17T13:39:38.921Z,13.98
2023-03-17T13:42:19.118Z,14.27
2023-03-17T13:45:09.332Z,14.80
2023-03-17T13:47:38.428Z,13.70
2023-03-17T13:50:10.297Z,13.30
2023-03-17T13:52:42.146Z,14.20
2023-03-17T13:55:32.048Z,13.32
2023-03-17T13:58:24.446Z,13.15
2023-03-17T14:00:59.389Z,13.25
2023-03-17T14:03:33.395Z,14.27
2023-03-17T14:06:04.016Z,13.23
2023-03-17T14:08:34.137Z,12.55
2023-03-17T14:11:04.120Z,13.55
2023-03-17T14:13:35.696Z,14.00
2023-03-17T14:16:08.022Z,13.82
2023-03-17T14:18:37.879Z,13.80
2023-03-17T14:21:11.652Z,14.35
2023-03-17T14:23:39.464Z,15.05
2023-03-17T14:26:11.995Z,15.15
2023-03-17T14:28:39.786Z,14.13
2023-03-17T14:31:16.866Z,14.75
2023-03-17T14:33:44.607Z,13.55
2023-03-17T14:36:14.652Z,13.40
2023-03-17T14:38:48.604Z,14.13
2023-03-17T14:41:21.328Z,14.43
2023-03-17T14:43:49.175Z,14.00
2023-03-17T14:46:23.199Z,14.43
2023-03-17T14:48:53.022Z,14.65
2023-03-17T14:51:26.610Z,14.02
2023-03-17T14:53:55.694Z,13.63
2023-03-17T14:56:23.865Z,14.05
2023-03-17T14:58:52.980Z,14.32
2023-03-17T15:01:26.976Z,14.63
2023-03-17T15:03:58.573Z,14.85
2023-03-17T15:06:27.959Z,14.85
2023-03-17T15:08:57.992Z,14.18
2023-03-17T15:11:26.978Z,14.45
2023-03-17T15:13:58.083Z,14.38
2023-03-17T15:16:30.085Z,13.50
2023-03-17T15:19:09.064Z,16.65
2023-03-17T15:21:40.526Z,14.23
2023-03-17T15:24:23.642Z,13.60
2023-03-17T15:26:51.325Z,13.63
2023-03-17T15:29:18.994Z,14.70
2023-03-17T15:31:48.056Z,15.43
2023-03-17T15:34:15.880Z,14.45
2023-03-17T15:36:47.414Z,14.27
2023-03-17T15:39:15.128Z,13.80
2023-03-17T15:41:42.737Z,14.90
2023-03-17T15:44:10.367Z,16.67
2023-03-17T15:46:37.966Z,14.30
2023-03-17T15:49:10.760Z,14.45
2023-03-17T15:51:38.455Z,14.95
2023-03-17T15:54:06.092Z,15.55
2023-03-17T15:56:34.395Z,14.80
2023-03-17T15:59:02.522Z,15.10
2023-03-17T16:01:30.207Z,15.02
2023-03-17T16:03:57.894Z,14.98
2023-03-17T16:06:26.896Z,13.55
2023-03-17T16:08:54.526Z,14.27
2023-03-17T16:11:28.025Z,14.02
2023-03-17T16:13:56.194Z,15.50
2023-03-17T16:16:30.210Z,14.75
2023-03-17T16:18:58.332Z,14.88
2023-03-17T16:21:27.631Z,14.07
2023-03-17T16:23:55.558Z,17.70
2023-03-17T16:26:23.182Z,14.68
2023-03-17T16:28:51.244Z,18.83
2023-03-17T16:31:22.124Z,17.17
2023-03-17T16:33:50.665Z,15.18
2023-03-17T16:36:20.290Z,14.63
2023-03-17T16:38:49.747Z,14.13
2023-03-17T16:41:22.224Z,15.95
2023-03-17T16:43:52.586Z,14.30
2023-03-17T16:46:21.847Z,14.85
2023-03-17T16:48:50.416Z,13.73
2023-03-17T16:51:18.245Z,14.00
2023-03-17T16:53:46.279Z,14.63
2023-03-17T16:56:20.504Z,19.60
2023-03-17T16:58:48.482Z,13.80
2023-03-17T17:01:19.141Z,12.85
2023-03-17T17:03:47.019Z,13.35
2023-03-17T17:06:15.426Z,13.10
2023-03-17T17:08:43.939Z,12.60
2023-03-17T17:11:13.603Z,12.85
2023-03-17T17:13:43.001Z,13.02
2023-03-17T17:16:19.051Z,13.68
2023-03-17T17:18:47.353Z,13.07
2023-03-17T17:21:15.178Z,14.05
2023-03-17T17:23:42.828Z,13.45
2023-03-17T17:26:10.628Z,13.18
2023-03-17T17:28:39.968Z,13.50
2023-03-17T17:31:09.867Z,13.57
2023-03-17T17:33:38.189Z,12.85
2023-03-17T17:36:08.063Z,12.68
2023-03-17T17:38:35.756Z,13.10
2023-03-17T17:41:06.924Z,13.38
2023-03-17T17:43:34.694Z,13.85
2023-03-17T17:46:02.514Z,13.27
2023-03-17T17:48:31.563Z,25.73
2023-03-17T17:50:59.289Z,14.05
2023-03-17T17:53:27.042Z,14.18
2023-03-17T17:55:54.697Z,15.18
2023-03-17T17:58:24.449Z,16.10
2023-03-17T18:00:53.874Z,16.33
2023-03-17T18:03:24.597Z,24.02
2023-03-17T18:05:53.634Z,21.65
2023-03-17T18:08:21.337Z,19.92
2023-03-17T18:10:51.508Z,19.73
2023-03-17T18:13:19.755Z,17.83
2023-03-17T18:15:47.503Z,13.32
2023-03-17T18:18:15.433Z,13.48
2023-03-17T18:20:43.215Z,16.95
2023-03-17T18:23:12.258Z,13.13
2023-03-17T18:25:39.896Z,14.50
2023-03-17T18:28:08.041Z,15.38
2023-03-17T18:30:35.895Z,15.68
2023-03-17T18:33:06.411Z,14.27
2023-03-17T18:35:34.222Z,16.70
2023-03-17T18:38:02.214Z,14.85
2023-03-17T18:40:31.369Z,15.27
2023-03-17T18:42:58.976Z,14.23
2023-03-17T18:45:26.639Z,17.40
2023-03-17T18:47:54.270Z,16.23
2023-03-17T18:50:22.665Z,15.18
2023-03-17T18:52:50.749Z,18.27
2023-03-17T18:55:18.788Z,15.43
2023-03-17T18:57:47.927Z,14.98
2023-03-17T19:00:17.420Z,17.77
2023-03-17T19:02:45.768Z,15.38
2023-03-17T19:05:14.165Z,15.15
2023-03-17T19:07:41.901Z,15.50
2023-03-17T19:10:10.639Z,16.83
2023-03-17T19:12:38.331Z,18.05
2023-03-17T19:15:09.418Z,20.08
2023-03-17T19:17:37.152Z,19.73
2023-03-17T19:20:05.746Z,16.60
2023-03-17T19:22:33.881Z,16.30
2023-03-17T19:25:04.282Z,17.65
2023-03-17T19:27:31.960Z,17.85
2023-03-17T19:29:59.556Z,16.90
2023-03-17T19:32:28.690Z,15.73
2023-03-17T19:34:56.530Z,15.50
2023-03-17T19:37:24.162Z,16.63
2023-03-17T19:39:51.840Z,17.00
2023-03-17T19:42:19.492Z,17.77
2023-03-17T19:44:47.156Z,16.27
2023-03-17T19:47:14.848Z,16.27
2023-03-17T19:49:43.873Z,16.10
2023-03-17T19:52:11.534Z,15.45
2023-03-17T19:54:43.605Z,31.67
2023-03-17T19:57:11.457Z,25.20
2023-03-17T19:59:39.234Z,20.40
2023-03-17T20:02:07.827Z,20.33
2023-03-17T20:04:37.205Z,21.17
2023-03-17T20:07:06.368Z,24.10
2023-03-17T20:09:35.492Z,29.50
2023-03-17T20:12:03.134Z,26.05
2023-03-17T20:14:30.863Z,23.33
2023-03-17T20:16:58.512Z,23.65
2023-03-17T20:19:26.267Z,21.88
2023-03-17T20:21:54.413Z,19.33
2023-03-17T20:24:23.654Z,27.80
2023-03-17T20:26:51.707Z,21.08
2023-03-17T20:29:19.892Z,16.88
2023-03-17T20:31:47.529Z,14.15
2023-03-17T20:34:15.237Z,13.02
2023-03-17T20:36:44.052Z,20.27
2023-03-17T20:39:14.899Z,38.17
2023-03-17T20:41:43.843Z,98.13
2023-03-17T20:44:12.179Z,81.00
2023-03-17T20:46:39.894Z,80.97
2023-03-17T20:49:08.073Z,39.15
2023-03-17T20:51:36.734Z,19.35
2023-03-17T20:54:05.094Z,17.00
2023-03-17T20:56:33.842Z,16.65
2023-03-17T20:59:04.925Z,16.77
2023-03-17T21:01:33.584Z,14.45
2023-03-17T21:04:10.973Z,17.13
2023-03-17T21:06:39.586Z,14.45
2023-03-17T21:09:07.806Z,15.20
2023-03-17T21:11:36.595Z,18.45
2023-03-17T21:14:06.882Z,14.18
2023-03-17T21:16:35.095Z,13.80
2023-03-17T21:19:03.081Z,15.88
2023-03-17T21:21:30.712Z,15.38
2023-03-17T21:23:58.442Z,14.75
2023-03-17T21:26:26.261Z,36.22
2023-03-17T21:28:55.058Z,19.77
2023-03-17T21:31:24.145Z,20.83
2023-03-17T21:33:51.785Z,22.77
2023-03-17T21:36:20.862Z,20.75
2023-03-17T21:38:48.459Z,26.35
2023-03-17T21:41:21.273Z,18.45
2023-03-17T21:43:48.895Z,20.40
2023-03-17T21:46:16.632Z,19.88
2023-03-17T21:48:45.677Z,27.17
2023-03-17T21:51:13.329Z,14.93
2023-03-17T21:53:40.946Z,16.13
2023-03-17T21:56:11.321Z,19.13
2023-03-17T21:58:40.004Z,16.60
2023-03-17T22:01:09.113Z,19.27
2023-03-17T22:03:39.545Z,23.67
2023-03-17T22:06:09.481Z,14.55
2023-03-17T22:08:37.081Z,14.23
2023-03-17T22:11:08.403Z,14.63
2023-03-17T22:13:36.186Z,14.27
2023-03-17T22:16:05.130Z,16.30
2023-03-17T22:18:33.390Z,17.42
2023-03-17T22:21:01.709Z,26.02
2023-03-17T22:23:30.763Z,17.77
2023-03-17T22:25:58.657Z,19.75
2023-03-17T22:28:26.348Z,21.85
2023-03-17T22:30:54.486Z,16.88
2023-03-17T22:33:22.324Z,18.33
2023-03-17T22:35:50.070Z,16.38
2023-03-17T22:38:17.892Z,15.25
2023-03-17T22:40:46.901Z,17.50
2023-03-17T22:43:14.574Z,15.35
2023-03-17T22:45:42.302Z,16.48
2023-03-17T22:48:10.872Z,17.38
2023-03-17T22:50:38.519Z,16.98
2023-03-17T22:53:06.220Z,22.42
2023-03-17T22:55:33.967Z,16.98
2023-03-17T22:58:02.939Z,16.92
2023-03-17T23:00:31.263Z,14.93
2023-03-17T23:02:59.091Z,18.08
2023-03-17T23:05:26.816Z,15.90
2023-03-17T23:07:54.491Z,22.98
2023-03-17T23:10:24.593Z,16.25
2023-03-17T23:12:52.741Z,18.27
2023-03-17T23:15:22.580Z,14.25
2023-03-17T23:17:50.436Z,15.23
2023-03-17T23:20:18.990Z,16.75
2023-03-17T23:22:47.034Z,17.33
2023-03-17T23:25:14.734Z,15.30
2023-03-17T23:27:42.534Z,15.60
2023-03-17T23:30:12.856Z,14.50
2023-03-17T23:32:42.937Z,15.27
2023-03-17T23:35:11.507Z,14.68
2023-03-17T23:37:39.418Z,15.82
2023-03-17T23:40:09.233Z,17.05
2023-03-17T23:42:37.121Z,15.27
2023-03-17T23:45:05.439Z,18.17
2023-03-17T23:47:33.033Z,14.85
2023-03-17T23:50:02.182Z,15.57
2023-03-17T23:52:30.635Z,13.40
2023-03-17T23:54:58.303Z,16.52
2023-03-17T23:57:26.024Z,16.13
2023-03-17T23:59:53.643Z,15.93
